createdAt,value
2017-12-28T00:00:12.007Z,48
2017-12-28T00:15:04.491Z,48
2017-12-28T00:30:05.286Z,48
2017-12-28T00:45:06.239Z,48
2017-12-28T01:00:05.410Z,46
2017-12-28T01:15:05.847Z,48
2017-12-28T01:30:05.003Z,47
2017-12-28T01:45:05.714Z,47
2017-12-28T02:00:05.166Z,47
2017-12-28T02:15:05.286Z,48
2017-12-28T02:30:05.404Z,46
2017-12-28T02:45:04.605Z,47
2017-12-28T03:00:05.086Z,47
2017-12-28T03:15:08.429Z,47
2017-12-28T03:30:12.370Z,48
2017-12-28T03:45:04.411Z,47
2017-12-28T04:00:04.732Z,46
2017-12-28T04:15:07.890Z,45
2017-12-28T04:30:07.664Z,45
2017-12-28T04:45:04.697Z,46
2017-12-28T05:00:06.507Z,46
2017-12-28T05:15:07.692Z,46
2017-12-28T05:30:06.037Z,46
2017-12-28T05:45:04.955Z,46
2017-12-28T06:00:05.142Z,46
2017-12-28T06:15:04.722Z,47
2017-12-28T06:30:05.615Z,45
2017-12-28T06:45:06.357Z,46
2017-12-28T07:00:04.947Z,46
2017-12-28T07:15:04.789Z,45
2017-12-28T07:30:05.170Z,44
2017-12-28T07:45:08.022Z,46
2017-12-28T08:00:04.476Z,47
2017-12-28T08:15:04.548Z,45
2017-12-28T08:30:06.410Z,46
2017-12-28T08:45:04.867Z,45
2017-12-28T09:00:05.321Z,45
2017-12-28T09:15:08.765Z,46
2017-12-28T09:30:05.667Z,46
2017-12-28T09:45:15.738Z,46
2017-12-28T10:00:11.505Z,46
2017-12-28T10:15:04.872Z,47
2017-12-28T10:30:05.718Z,47
2017-12-28T10:45:05.154Z,47
2017-12-28T11:00:05.231Z,48
2017-12-28T11:15:05.253Z,49
2017-12-28T11:30:04.425Z,48
2017-12-28T11:45:07.581Z,49
2017-12-28T12:00:05.558Z,50
2017-12-28T12:15:05.053Z,50
2017-12-28T12:30:04.849Z,49
2017-12-28T12:45:04.892Z,51
2017-12-28T13:00:05.060Z,50
2017-12-28T13:15:05.064Z,50
2017-12-28T13:30:07.832Z,49
2017-12-28T13:45:04.713Z,49
2017-12-28T14:00:04.599Z,49
2017-12-28T14:15:07.987Z,49
2017-12-28T14:30:04.605Z,50
2017-12-28T14:45:04.725Z,48
2017-12-28T15:00:04.867Z,50
2017-12-28T15:15:05.539Z,47
2017-12-28T15:30:05.090Z,49
2017-12-28T15:45:05.195Z,50
2017-12-28T16:00:11.810Z,49
2017-12-28T16:15:04.403Z,50
2017-12-28T16:30:04.791Z,48
2017-12-28T16:45:04.904Z,52
2017-12-28T17:00:05.254Z,50
2017-12-28T17:15:05.651Z,50
2017-12-28T17:30:07.916Z,48
2017-12-28T17:45:04.378Z,48
2017-12-28T18:00:04.463Z,51
2017-12-28T18:15:04.842Z,48
2017-12-28T18:30:04.722Z,50
2017-12-28T18:45:05.133Z,47
2017-12-28T19:00:05.648Z,47
2017-12-28T19:15:11.378Z,51
2017-12-28T19:30:06.123Z,47
2017-12-28T19:45:04.574Z,48
2017-12-28T20:00:05.248Z,46
2017-12-28T20:15:04.981Z,48
2017-12-28T20:30:05.077Z,48
2017-12-28T20:45:05.221Z,47
2017-12-28T21:00:04.716Z,46
2017-12-28T21:15:04.935Z,46
2017-12-28T21:30:08.047Z,46
2017-12-28T21:45:04.986Z,46
2017-12-28T22:00:05.059Z,45
2017-12-28T22:15:04.797Z,47
2017-12-28T22:30:05.236Z,48
2017-12-28T22:45:05.367Z,46
2017-12-28T23:00:05.516Z,46
2017-12-28T23:15:04.939Z,45
2017-12-28T23:30:08.159Z,46
2017-12-28T23:45:05.085Z,46
